Kezdőlap
METAR-TAF:

METAR-TAF

Repülőterek :

Pond Inlet, Nunavut, Kanada

földrajzi szélesség: 72-42N, földrajzi hosszúság: 077-58W, magasság: 59 m

Jelenlegi meteorológiai megfigyelések

A jelentés 46 perccel ezelõtt készült, 10:18 UTC
Kelet-északkeleti szél 10 kt
Hőmérséklet 8°C
Páratartalom 76%
Légköri nyomás 1011 hPa
Látótávolság: 14.5 km
Borult 8000 lábon

METAR: CYIO 081018Z AUTO 06010KT 9SM OVC080 08/04 A2985 RMK SLP114

Idő: 07:04 (11:04 UTC)

Előrejelzés

A jelentés 4 órával és 26 perccel ezelõtt készült, 06:38 UTC
Az előrejelzés 08-én 07 óra UTC és 08-én 19 óra UTC között érvényes
Kelet-északkeleti szél 12 kt
Látótávolság: 10 km
Szakadozott felhőzet 10000 lábon

TAF: CYIO 080638Z 0807/0819 06012KT P6SM BKN100 RMK FCST BASED ON AUTO OBS. NXT FCST BY 081300Z

Meteorológiai megfigyelések és előrejelzések több, mint 4000 repülőtéren (METAR és TAF jelentéseket).

A térképen piros és sárga pontok jelzik az elérhető meteorológiai állomásokat.

Mozgassa az egeret a pont fölött, hogy megjelenjen az állomás neve.

Azután kattintson az időjárási megfigyelések és előrejelzések megtekintéséhez.

A térkép megváltoztatása: kattintson a fekete keresztel jelölt zöld gombra ráközelítéshez, a vonallal jelölt zöld gombra távolításhoz, vagy a zöld nyilakra a szomszédos térképek eléréséhez.


METAR-TAF: